sensor_id;sensor_type;location;lat;lon;timestamp;P1;durP1;ratioP1;P2;durP2;ratioP2
58992;SDS011;44782;0.000;0.000;2024-01-30T00:01:53;10.03;;;8.27;;
58992;SDS011;44782;0.000;0.000;2024-01-30T00:04:08;8.70;;;7.80;;
58992;SDS011;44782;0.000;0.000;2024-01-30T00:06:26;9.03;;;8.07;;
58992;SDS011;44782;0.000;0.000;2024-01-30T00:08:42;9.60;;;7.90;;
58992;SDS011;44782;0.000;0.000;2024-01-30T00:11:01;10.10;;;7.43;;
58992;SDS011;44782;0.000;0.000;2024-01-30T00:13:17;8.90;;;7.87;;
58992;SDS011;44782;0.000;0.000;2024-01-30T00:15:34;7.90;;;7.10;;
58992;SDS011;44782;0.000;0.000;2024-01-30T00:17:50;9.57;;;7.57;;
58992;SDS011;44782;0.000;0.000;2024-01-30T00:20:07;8.40;;;7.50;;
58992;SDS011;44782;0.000;0.000;2024-01-30T00:22:24;9.17;;;7.90;;
58992;SDS011;44782;0.000;0.000;2024-01-30T00:24:40;8.77;;;7.00;;
58992;SDS011;44782;0.000;0.000;2024-01-30T00:26:55;7.93;;;6.93;;
58992;SDS011;44782;0.000;0.000;2024-01-30T00:29:11;8.47;;;7.00;;
58992;SDS011;44782;0.000;0.000;2024-01-30T00:31:27;7.40;;;6.70;;
58992;SDS011;44782;0.000;0.000;2024-01-30T00:33:43;7.67;;;6.97;;
58992;SDS011;44782;0.000;0.000;2024-01-30T00:35:58;6.83;;;6.13;;
58992;SDS011;44782;0.000;0.000;2024-01-30T00:38:14;7.07;;;6.37;;
58992;SDS011;44782;0.000;0.000;2024-01-30T00:40:30;7.37;;;6.57;;
58992;SDS011;44782;0.000;0.000;2024-01-30T00:42:45;8.17;;;7.00;;
58992;SDS011;44782;0.000;0.000;2024-01-30T00:45:01;8.27;;;7.40;;
58992;SDS011;44782;0.000;0.000;2024-01-30T00:47:16;7.53;;;6.63;;
58992;SDS011;44782;0.000;0.000;2024-01-30T00:49:32;8.00;;;6.50;;
58992;SDS011;44782;0.000;0.000;2024-01-30T00:51:48;6.70;;;6.00;;
58992;SDS011;44782;0.000;0.000;2024-01-30T00:54:04;7.77;;;6.50;;
58992;SDS011;44782;0.000;0.000;2024-01-30T00:56:21;6.97;;;6.27;;
58992;SDS011;44782;0.000;0.000;2024-01-30T00:58:37;7.33;;;6.17;;
58992;SDS011;44782;0.000;0.000;2024-01-30T01:00:52;6.60;;;5.90;;
58992;SDS011;44782;0.000;0.000;2024-01-30T01:03:08;7.30;;;6.20;;
58992;SDS011;44782;0.000;0.000;2024-01-30T01:05:24;6.37;;;5.77;;
58992;SDS011;44782;0.000;0.000;2024-01-30T01:07:40;6.80;;;5.70;;
58992;SDS011;44782;0.000;0.000;2024-01-30T01:09:57;6.80;;;6.20;;
58992;SDS011;44782;0.000;0.000;2024-01-30T01:12:13;6.57;;;5.77;;
58992;SDS011;44782;0.000;0.000;2024-01-30T01:14:28;6.90;;;6.23;;
58992;SDS011;44782;0.000;0.000;2024-01-30T01:16:44;6.73;;;6.00;;
58992;SDS011;44782;0.000;0.000;2024-01-30T01:19:00;6.33;;;5.73;;
58992;SDS011;44782;0.000;0.000;2024-01-30T01:21:16;5.83;;;5.20;;
58992;SDS011;44782;0.000;0.000;2024-01-30T01:23:31;5.93;;;5.43;;
58992;SDS011;44782;0.000;0.000;2024-01-30T01:25:47;6.63;;;5.93;;
58992;SDS011;44782;0.000;0.000;2024-01-30T01:28:03;6.30;;;5.70;;
58992;SDS011;44782;0.000;0.000;2024-01-30T01:30:18;6.20;;;5.60;;
58992;SDS011;44782;0.000;0.000;2024-01-30T01:32:37;6.00;;;5.30;;
58992;SDS011;44782;0.000;0.000;2024-01-30T01:34:53;6.17;;;5.57;;
58992;SDS011;44782;0.000;0.000;2024-01-30T01:37:09;6.20;;;5.70;;
58992;SDS011;44782;0.000;0.000;2024-01-30T01:39:24;6.43;;;5.73;;
58992;SDS011;44782;0.000;0.000;2024-01-30T01:41:40;6.07;;;5.57;;
58992;SDS011;44782;0.000;0.000;2024-01-30T01:43:55;6.10;;;5.43;;
58992;SDS011;44782;0.000;0.000;2024-01-30T01:46:11;5.87;;;5.27;;
58992;SDS011;44782;0.000;0.000;2024-01-30T01:48:27;5.97;;;5.37;;
58992;SDS011;44782;0.000;0.000;2024-01-30T01:50:43;5.70;;;5.20;;
58992;SDS011;44782;0.000;0.000;2024-01-30T01:52:59;5.67;;;5.10;;
58992;SDS011;44782;0.000;0.000;2024-01-30T01:55:15;5.97;;;5.47;;
58992;SDS011;44782;0.000;0.000;2024-01-30T01:57:33;5.60;;;5.10;;
58992;SDS011;44782;0.000;0.000;2024-01-30T01:59:49;5.97;;;5.10;;
58992;SDS011;44782;0.000;0.000;2024-01-30T02:02:05;5.73;;;5.20;;
58992;SDS011;44782;0.000;0.000;2024-01-30T02:04:26;5.47;;;4.93;;
58992;SDS011;44782;0.000;0.000;2024-01-30T02:06:42;6.00;;;5.43;;
58992;SDS011;44782;0.000;0.000;2024-01-30T02:08:59;5.33;;;4.83;;
58992;SDS011;44782;0.000;0.000;2024-01-30T02:11:14;5.63;;;5.13;;
58992;SDS011;44782;0.000;0.000;2024-01-30T02:13:31;5.70;;;5.20;;
58992;SDS011;44782;0.000;0.000;2024-01-30T02:15:50;5.70;;;5.10;;
58992;SDS011;44782;0.000;0.000;2024-01-30T02:18:06;5.23;;;4.83;;
58992;SDS011;44782;0.000;0.000;2024-01-30T02:20:23;5.97;;;5.30;;
58992;SDS011;44782;0.000;0.000;2024-01-30T02:22:40;5.27;;;4.80;;
58992;SDS011;44782;0.000;0.000;2024-01-30T02:24:56;5.40;;;4.90;;
58992;SDS011;44782;0.000;0.000;2024-01-30T02:27:11;5.40;;;4.90;;
58992;SDS011;44782;0.000;0.000;2024-01-30T02:29:27;5.53;;;4.97;;
58992;SDS011;44782;0.000;0.000;2024-01-30T02:31:43;5.67;;;4.90;;
58992;SDS011;44782;0.000;0.000;2024-01-30T02:34:00;5.63;;;5.10;;
58992;SDS011;44782;0.000;0.000;2024-01-30T02:36:16;5.40;;;4.90;;
58992;SDS011;44782;0.000;0.000;2024-01-30T02:38:32;5.20;;;4.70;;
58992;SDS011;44782;0.000;0.000;2024-01-30T02:40:47;5.03;;;4.63;;
58992;SDS011;44782;0.000;0.000;2024-01-30T02:43:03;5.53;;;5.03;;
58992;SDS011;44782;0.000;0.000;2024-01-30T02:45:19;5.53;;;5.03;;
58992;SDS011;44782;0.000;0.000;2024-01-30T02:47:35;5.17;;;4.67;;
58992;SDS011;44782;0.000;0.000;2024-01-30T02:49:50;5.20;;;4.80;;
58992;SDS011;44782;0.000;0.000;2024-01-30T02:52:06;5.40;;;4.90;;
58992;SDS011;44782;0.000;0.000;2024-01-30T02:54:21;5.13;;;4.63;;
58992;SDS011;44782;0.000;0.000;2024-01-30T02:56:37;5.10;;;4.70;;
58992;SDS011;44782;0.000;0.000;2024-01-30T02:58:53;4.93;;;4.43;;
58992;SDS011;44782;0.000;0.000;2024-01-30T03:01:08;5.60;;;5.10;;
58992;SDS011;44782;0.000;0.000;2024-01-30T03:03:24;5.03;;;4.53;;
58992;SDS011;44782;0.000;0.000;2024-01-30T03:05:39;5.03;;;4.63;;
58992;SDS011;44782;0.000;0.000;2024-01-30T03:07:55;4.97;;;4.50;;
58992;SDS011;44782;0.000;0.000;2024-01-30T03:10:11;4.97;;;4.57;;
58992;SDS011;44782;0.000;0.000;2024-01-30T03:12:26;4.80;;;4.40;;
58992;SDS011;44782;0.000;0.000;2024-01-30T03:14:42;5.27;;;4.60;;
58992;SDS011;44782;0.000;0.000;2024-01-30T03:16:58;5.00;;;4.60;;
58992;SDS011;44782;0.000;0.000;2024-01-30T03:19:13;5.03;;;4.53;;
58992;SDS011;44782;0.000;0.000;2024-01-30T03:21:29;5.00;;;4.50;;
58992;SDS011;44782;0.000;0.000;2024-01-30T03:23:45;4.60;;;4.20;;
58992;SDS011;44782;0.000;0.000;2024-01-30T03:26:00;5.27;;;4.77;;
58992;SDS011;44782;0.000;0.000;2024-01-30T03:28:16;5.03;;;4.50;;
58992;SDS011;44782;0.000;0.000;2024-01-30T03:30:31;4.70;;;4.20;;
58992;SDS011;44782;0.000;0.000;2024-01-30T03:32:47;4.30;;;3.90;;
58992;SDS011;44782;0.000;0.000;2024-01-30T03:35:03;4.83;;;4.43;;
58992;SDS011;44782;0.000;0.000;2024-01-30T03:37:19;4.53;;;4.13;;
58992;SDS011;44782;0.000;0.000;2024-01-30T03:39:35;4.90;;;4.40;;
58992;SDS011;44782;0.000;0.000;2024-01-30T03:41:51;5.00;;;4.60;;
58992;SDS011;44782;0.000;0.000;2024-01-30T03:44:07;5.03;;;4.50;;
58992;SDS011;44782;0.000;0.000;2024-01-30T03:46:22;4.53;;;4.13;;
58992;SDS011;44782;0.000;0.000;2024-01-30T03:48:38;4.40;;;4.07;;
58992;SDS011;44782;0.000;0.000;2024-01-30T03:50:54;4.80;;;4.40;;
58992;SDS011;44782;0.000;0.000;2024-01-30T03:53:10;4.93;;;4.53;;
58992;SDS011;44782;0.000;0.000;2024-01-30T03:55:25;4.60;;;4.20;;
58992;SDS011;44782;0.000;0.000;2024-01-30T03:57:41;4.70;;;4.30;;
58992;SDS011;44782;0.000;0.000;2024-01-30T03:59:56;4.47;;;4.07;;
58992;SDS011;44782;0.000;0.000;2024-01-30T04:02:12;4.73;;;4.20;;
58992;SDS011;44782;0.000;0.000;2024-01-30T04:04:28;4.83;;;4.43;;
58992;SDS011;44782;0.000;0.000;2024-01-30T04:06:43;4.47;;;4.17;;
58992;SDS011;44782;0.000;0.000;2024-01-30T04:09:00;4.37;;;3.90;;
58992;SDS011;44782;0.000;0.000;2024-01-30T04:11:17;4.40;;;4.00;;
58992;SDS011;44782;0.000;0.000;2024-01-30T04:13:34;4.47;;;4.07;;
58992;SDS011;44782;0.000;0.000;2024-01-30T04:15:50;4.33;;;3.97;;
58992;SDS011;44782;0.000;0.000;2024-01-30T04:18:07;3.90;;;3.60;;
58992;SDS011;44782;0.000;0.000;2024-01-30T04:20:22;4.40;;;4.00;;
58992;SDS011;44782;0.000;0.000;2024-01-30T04:22:38;4.27;;;3.87;;
58992;SDS011;44782;0.000;0.000;2024-01-30T04:24:54;3.70;;;3.40;;
58992;SDS011;44782;0.000;0.000;2024-01-30T04:27:09;3.80;;;3.50;;
58992;SDS011;44782;0.000;0.000;2024-01-30T04:29:25;3.77;;;3.47;;
58992;SDS011;44782;0.000;0.000;2024-01-30T04:31:40;3.50;;;3.27;;
58992;SDS011;44782;0.000;0.000;2024-01-30T04:33:56;3.83;;;3.53;;
58992;SDS011;44782;0.000;0.000;2024-01-30T04:36:12;3.87;;;3.47;;
58992;SDS011;44782;0.000;0.000;2024-01-30T04:38:27;3.67;;;3.37;;
58992;SDS011;44782;0.000;0.000;2024-01-30T04:40:43;3.30;;;3.07;;
58992;SDS011;44782;0.000;0.000;2024-01-30T04:42:59;3.23;;;3.03;;
58992;SDS011;44782;0.000;0.000;2024-01-30T04:45:14;3.10;;;2.90;;
58992;SDS011;44782;0.000;0.000;2024-01-30T04:47:30;3.20;;;2.90;;
58992;SDS011;44782;0.000;0.000;2024-01-30T04:49:46;3.13;;;2.93;;
58992;SDS011;44782;0.000;0.000;2024-01-30T04:52:01;3.43;;;3.13;;
58992;SDS011;44782;0.000;0.000;2024-01-30T04:54:17;3.20;;;2.90;;
58992;SDS011;44782;0.000;0.000;2024-01-30T04:56:33;3.57;;;3.27;;
58992;SDS011;44782;0.000;0.000;2024-01-30T04:58:49;3.00;;;2.80;;
58992;SDS011;44782;0.000;0.000;2024-01-30T05:01:05;3.47;;;3.17;;
58992;SDS011;44782;0.000;0.000;2024-01-30T05:03:21;3.00;;;2.80;;
58992;SDS011;44782;0.000;0.000;2024-01-30T05:05:38;2.90;;;2.70;;
58992;SDS011;44782;0.000;0.000;2024-01-30T05:07:54;3.20;;;3.00;;
58992;SDS011;44782;0.000;0.000;2024-01-30T05:10:09;3.38;;;3.00;;
58992;SDS011;44782;0.000;0.000;2024-01-30T05:12:25;3.28;;;3.00;;
58992;SDS011;44782;0.000;0.000;2024-01-30T05:14:41;3.03;;;2.83;;
58992;SDS011;44782;0.000;0.000;2024-01-30T05:16:57;3.08;;;2.78;;
58992;SDS011;44782;0.000;0.000;2024-01-30T05:19:13;3.28;;;3.00;;
58992;SDS011;44782;0.000;0.000;2024-01-30T05:21:32;3.45;;;3.15;;
58992;SDS011;44782;0.000;0.000;2024-01-30T05:23:47;3.00;;;2.80;;
58992;SDS011;44782;0.000;0.000;2024-01-30T05:26:03;3.15;;;2.95;;
58992;SDS011;44782;0.000;0.000;2024-01-30T05:28:19;3.25;;;2.95;;
58992;SDS011;44782;0.000;0.000;2024-01-30T05:30:34;2.95;;;2.75;;
58992;SDS011;44782;0.000;0.000;2024-01-30T05:32:50;2.95;;;2.75;;
58992;SDS011;44782;0.000;0.000;2024-01-30T05:35:06;3.20;;;2.92;;
58992;SDS011;44782;0.000;0.000;2024-01-30T05:37:22;3.08;;;2.88;;
58992;SDS011;44782;0.000;0.000;2024-01-30T05:39:38;3.30;;;3.00;;
58992;SDS011;44782;0.000;0.000;2024-01-30T05:41:54;3.42;;;3.13;;
58992;SDS011;44782;0.000;0.000;2024-01-30T05:44:09;3.40;;;3.10;;
58992;SDS011;44782;0.000;0.000;2024-01-30T05:46:25;3.10;;;2.90;;
58992;SDS011;44782;0.000;0.000;2024-01-30T05:48:41;3.00;;;2.80;;
58992;SDS011;44782;0.000;0.000;2024-01-30T05:50:56;3.40;;;3.15;;
58992;SDS011;44782;0.000;0.000;2024-01-30T05:53:12;3.28;;;2.97;;
58992;SDS011;44782;0.000;0.000;2024-01-30T05:55:28;3.22;;;3.00;;
58992;SDS011;44782;0.000;0.000;2024-01-30T05:57:43;3.17;;;2.97;;
58992;SDS011;44782;0.000;0.000;2024-01-30T05:59:59;3.30;;;3.00;;
58992;SDS011;44782;0.000;0.000;2024-01-30T06:02:15;3.53;;;3.22;;
58992;SDS011;44782;0.000;0.000;2024-01-30T06:04:30;2.90;;;2.70;;
58992;SDS011;44782;0.000;0.000;2024-01-30T06:06:46;2.90;;;2.60;;
58992;SDS011;44782;0.000;0.000;2024-01-30T06:09:02;3.20;;;3.00;;
58992;SDS011;44782;0.000;0.000;2024-01-30T06:11:17;3.13;;;2.90;;
58992;SDS011;44782;0.000;0.000;2024-01-30T06:13:33;3.35;;;3.05;;
58992;SDS011;44782;0.000;0.000;2024-01-30T06:15:49;5.13;;;2.90;;
58992;SDS011;44782;0.000;0.000;2024-01-30T06:18:05;3.25;;;3.03;;
58992;SDS011;44782;0.000;0.000;2024-01-30T06:20:20;3.05;;;2.83;;
58992;SDS011;44782;0.000;0.000;2024-01-30T06:22:36;3.13;;;2.92;;
58992;SDS011;44782;0.000;0.000;2024-01-30T06:24:52;2.92;;;2.72;;
58992;SDS011;44782;0.000;0.000;2024-01-30T06:27:07;2.85;;;2.65;;
58992;SDS011;44782;0.000;0.000;2024-01-30T06:29:23;3.22;;;3.03;;
58992;SDS011;44782;0.000;0.000;2024-01-30T06:31:42;3.33;;;3.03;;
58992;SDS011;44782;0.000;0.000;2024-01-30T06:33:57;3.38;;;3.13;;
58992;SDS011;44782;0.000;0.000;2024-01-30T06:36:13;3.28;;;2.97;;
58992;SDS011;44782;0.000;0.000;2024-01-30T06:38:29;4.10;;;3.10;;
58992;SDS011;44782;0.000;0.000;2024-01-30T06:40:44;3.25;;;3.05;;
58992;SDS011;44782;0.000;0.000;2024-01-30T06:43:00;3.47;;;3.17;;
58992;SDS011;44782;0.000;0.000;2024-01-30T06:45:16;3.30;;;3.00;;
58992;SDS011;44782;0.000;0.000;2024-01-30T06:47:31;3.22;;;3.00;;
58992;SDS011;44782;0.000;0.000;2024-01-30T06:49:47;2.80;;;2.60;;
58992;SDS011;44782;0.000;0.000;2024-01-30T06:52:03;2.97;;;2.77;;
58992;SDS011;44782;0.000;0.000;2024-01-30T06:54:21;3.10;;;2.90;;
58992;SDS011;44782;0.000;0.000;2024-01-30T06:56:36;3.22;;;2.92;;
58992;SDS011;44782;0.000;0.000;2024-01-30T06:58:52;3.30;;;3.08;;
58992;SDS011;44782;0.000;0.000;2024-01-30T07:01:08;3.45;;;2.83;;
58992;SDS011;44782;0.000;0.000;2024-01-30T07:03:24;3.20;;;3.00;;
58992;SDS011;44782;0.000;0.000;2024-01-30T07:05:40;3.35;;;3.05;;
58992;SDS011;44782;0.000;0.000;2024-01-30T07:07:56;2.90;;;2.70;;
58992;SDS011;44782;0.000;0.000;2024-01-30T07:10:11;3.38;;;3.08;;
58992;SDS011;44782;0.000;0.000;2024-01-30T07:12:27;4.68;;;3.08;;
58992;SDS011;44782;0.000;0.000;2024-01-30T07:14:43;3.10;;;2.90;;
58992;SDS011;44782;0.000;0.000;2024-01-30T07:16:58;3.33;;;3.03;;
58992;SDS011;44782;0.000;0.000;2024-01-30T07:19:17;2.93;;;2.73;;
58992;SDS011;44782;0.000;0.000;2024-01-30T07:21:32;3.23;;;3.03;;
58992;SDS011;44782;0.000;0.000;2024-01-30T07:23:48;2.95;;;2.72;;
58992;SDS011;44782;0.000;0.000;2024-01-30T07:26:04;3.50;;;3.20;;
58992;SDS011;44782;0.000;0.000;2024-01-30T07:28:21;3.15;;;2.83;;
58992;SDS011;44782;0.000;0.000;2024-01-30T07:30:37;3.50;;;3.20;;
58992;SDS011;44782;0.000;0.000;2024-01-30T07:32:53;3.20;;;2.90;;
58992;SDS011;44782;0.000;0.000;2024-01-30T07:35:08;3.23;;;2.93;;
58992;SDS011;44782;0.000;0.000;2024-01-30T07:37:24;3.00;;;2.70;;
58992;SDS011;44782;0.000;0.000;2024-01-30T07:39:40;3.40;;;3.10;;
58992;SDS011;44782;0.000;0.000;2024-01-30T07:41:55;3.37;;;3.00;;
58992;SDS011;44782;0.000;0.000;2024-01-30T07:44:11;3.40;;;3.10;;
58992;SDS011;44782;0.000;0.000;2024-01-30T07:46:26;3.38;;;3.17;;
58992;SDS011;44782;0.000;0.000;2024-01-30T07:48:42;3.30;;;3.00;;
58992;SDS011;44782;0.000;0.000;2024-01-30T07:50:58;3.57;;;3.27;;
58992;SDS011;44782;0.000;0.000;2024-01-30T07:53:13;3.40;;;3.10;;
58992;SDS011;44782;0.000;0.000;2024-01-30T07:55:29;3.30;;;3.00;;
58992;SDS011;44782;0.000;0.000;2024-01-30T07:57:46;3.43;;;3.13;;
58992;SDS011;44782;0.000;0.000;2024-01-30T08:00:02;3.10;;;2.90;;
58992;SDS011;44782;0.000;0.000;2024-01-30T08:02:18;3.83;;;3.23;;
58992;SDS011;44782;0.000;0.000;2024-01-30T08:04:34;3.20;;;3.00;;
58992;SDS011;44782;0.000;0.000;2024-01-30T08:06:49;3.30;;;3.00;;
58992;SDS011;44782;0.000;0.000;2024-01-30T08:09:05;3.17;;;2.87;;
58992;SDS011;44782;0.000;0.000;2024-01-30T08:11:22;3.23;;;2.93;;
58992;SDS011;44782;0.000;0.000;2024-01-30T08:13:40;3.70;;;3.40;;
58992;SDS011;44782;0.000;0.000;2024-01-30T08:15:56;3.20;;;2.90;;
58992;SDS011;44782;0.000;0.000;2024-01-30T08:18:12;3.17;;;2.90;;
58992;SDS011;44782;0.000;0.000;2024-01-30T08:20:27;3.40;;;2.73;;
58992;SDS011;44782;0.000;0.000;2024-01-30T08:22:43;3.33;;;3.10;;
58992;SDS011;44782;0.000;0.000;2024-01-30T08:24:58;3.47;;;2.80;;
58992;SDS011;44782;0.000;0.000;2024-01-30T08:27:14;3.30;;;3.00;;
58992;SDS011;44782;0.000;0.000;2024-01-30T08:29:30;2.97;;;2.77;;
58992;SDS011;44782;0.000;0.000;2024-01-30T08:31:45;3.03;;;2.80;;
58992;SDS011;44782;0.000;0.000;2024-01-30T08:34:01;2.90;;;2.70;;
58992;SDS011;44782;0.000;0.000;2024-01-30T08:36:17;3.00;;;2.80;;
58992;SDS011;44782;0.000;0.000;2024-01-30T08:38:33;3.10;;;2.90;;
58992;SDS011;44782;0.000;0.000;2024-01-30T08:40:49;3.40;;;3.10;;
58992;SDS011;44782;0.000;0.000;2024-01-30T08:43:04;2.93;;;2.63;;
58992;SDS011;44782;0.000;0.000;2024-01-30T08:45:20;3.10;;;2.80;;
58992;SDS011;44782;0.000;0.000;2024-01-30T08:47:36;2.97;;;2.77;;
58992;SDS011;44782;0.000;0.000;2024-01-30T08:49:51;3.00;;;2.70;;
58992;SDS011;44782;0.000;0.000;2024-01-30T08:52:07;3.20;;;3.00;;
58992;SDS011;44782;0.000;0.000;2024-01-30T08:54:23;2.90;;;2.70;;
58992;SDS011;44782;0.000;0.000;2024-01-30T08:56:39;2.97;;;2.77;;
58992;SDS011;44782;0.000;0.000;2024-01-30T08:58:54;3.23;;;2.93;;
58992;SDS011;44782;0.000;0.000;2024-01-30T09:01:10;3.40;;;3.07;;
58992;SDS011;44782;0.000;0.000;2024-01-30T09:03:26;3.23;;;2.93;;
58992;SDS011;44782;0.000;0.000;2024-01-30T09:05:42;3.30;;;3.00;;
58992;SDS011;44782;0.000;0.000;2024-01-30T09:07:58;3.40;;;2.90;;
58992;SDS011;44782;0.000;0.000;2024-01-30T09:10:14;3.03;;;2.77;;
58992;SDS011;44782;0.000;0.000;2024-01-30T09:12:29;3.20;;;3.00;;
58992;SDS011;44782;0.000;0.000;2024-01-30T09:14:45;3.23;;;3.03;;
58992;SDS011;44782;0.000;0.000;2024-01-30T09:17:01;2.80;;;2.60;;
58992;SDS011;44782;0.000;0.000;2024-01-30T09:19:18;3.20;;;2.90;;
58992;SDS011;44782;0.000;0.000;2024-01-30T09:21:33;3.03;;;2.83;;
58992;SDS011;44782;0.000;0.000;2024-01-30T09:23:49;3.07;;;2.80;;
58992;SDS011;44782;0.000;0.000;2024-01-30T09:26:05;3.07;;;2.77;;
58992;SDS011;44782;0.000;0.000;2024-01-30T09:28:20;3.10;;;2.80;;
58992;SDS011;44782;0.000;0.000;2024-01-30T09:30:36;3.33;;;3.03;;
58992;SDS011;44782;0.000;0.000;2024-01-30T09:32:52;3.20;;;2.90;;
58992;SDS011;44782;0.000;0.000;2024-01-30T09:35:07;3.40;;;3.10;;
58992;SDS011;44782;0.000;0.000;2024-01-30T09:37:23;2.90;;;2.60;;
58992;SDS011;44782;0.000;0.000;2024-01-30T09:39:39;2.60;;;2.40;;
58992;SDS011;44782;0.000;0.000;2024-01-30T09:42:02;3.13;;;2.90;;
58992;SDS011;44782;0.000;0.000;2024-01-30T09:44:24;2.93;;;2.73;;
58992;SDS011;44782;0.000;0.000;2024-01-30T09:46:43;2.90;;;2.70;;
58992;SDS011;44782;0.000;0.000;2024-01-30T09:49:02;2.83;;;2.63;;
58992;SDS011;44782;0.000;0.000;2024-01-30T09:51:18;3.03;;;2.77;;
58992;SDS011;44782;0.000;0.000;2024-01-30T09:53:35;2.83;;;2.63;;
58992;SDS011;44782;0.000;0.000;2024-01-30T09:55:52;2.80;;;2.60;;
58992;SDS011;44782;0.000;0.000;2024-01-30T09:58:07;2.87;;;2.67;;
58992;SDS011;44782;0.000;0.000;2024-01-30T10:00:23;3.27;;;2.80;;
58992;SDS011;44782;0.000;0.000;2024-01-30T10:02:42;2.70;;;2.50;;
58992;SDS011;44782;0.000;0.000;2024-01-30T10:04:58;3.07;;;2.80;;
58992;SDS011;44782;0.000;0.000;2024-01-30T10:07:14;2.87;;;2.67;;
58992;SDS011;44782;0.000;0.000;2024-01-30T10:09:31;3.10;;;2.80;;
58992;SDS011;44782;0.000;0.000;2024-01-30T10:11:48;3.03;;;2.73;;
58992;SDS011;44782;0.000;0.000;2024-01-30T10:14:06;2.60;;;2.40;;
58992;SDS011;44782;0.000;0.000;2024-01-30T10:16:22;2.70;;;2.50;;
58992;SDS011;44782;0.000;0.000;2024-01-30T10:18:38;2.67;;;2.47;;
58992;SDS011;44782;0.000;0.000;2024-01-30T10:20:56;2.70;;;2.50;;
58992;SDS011;44782;0.000;0.000;2024-01-30T10:23:12;3.13;;;2.57;;
58992;SDS011;44782;0.000;0.000;2024-01-30T10:25:28;2.77;;;2.50;;
58992;SDS011;44782;0.000;0.000;2024-01-30T10:27:43;2.90;;;2.70;;
58992;SDS011;44782;0.000;0.000;2024-01-30T10:29:59;2.73;;;2.53;;
58992;SDS011;44782;0.000;0.000;2024-01-30T10:32:15;2.90;;;2.60;;
58992;SDS011;44782;0.000;0.000;2024-01-30T10:34:31;2.87;;;2.60;;
58992;SDS011;44782;0.000;0.000;2024-01-30T10:36:50;2.50;;;2.30;;
58992;SDS011;44782;0.000;0.000;2024-01-30T10:39:09;2.90;;;2.53;;
58992;SDS011;44782;0.000;0.000;2024-01-30T10:41:28;2.50;;;2.30;;
58992;SDS011;44782;0.000;0.000;2024-01-30T10:43:50;2.97;;;2.77;;
58992;SDS011;44782;0.000;0.000;2024-01-30T10:46:20;2.60;;;2.40;;
58992;SDS011;44782;0.000;0.000;2024-01-30T10:48:42;2.20;;;2.00;;
58992;SDS011;44782;0.000;0.000;2024-01-30T10:50:59;2.30;;;2.10;;
58992;SDS011;44782;0.000;0.000;2024-01-30T10:53:17;2.47;;;2.07;;
58992;SDS011;44782;0.000;0.000;2024-01-30T10:55:34;2.40;;;2.20;;
58992;SDS011;44782;0.000;0.000;2024-01-30T10:57:51;2.83;;;2.50;;
58992;SDS011;44782;0.000;0.000;2024-01-30T11:00:08;2.23;;;2.13;;
58992;SDS011;44782;0.000;0.000;2024-01-30T11:02:30;3.00;;;2.50;;
58992;SDS011;44782;0.000;0.000;2024-01-30T11:04:46;2.50;;;2.30;;
58992;SDS011;44782;0.000;0.000;2024-01-30T11:07:13;2.30;;;2.10;;
58992;SDS011;44782;0.000;0.000;2024-01-30T11:09:32;2.60;;;2.40;;
58992;SDS011;44782;0.000;0.000;2024-01-30T11:11:52;2.27;;;2.00;;
58992;SDS011;44782;0.000;0.000;2024-01-30T11:14:22;2.40;;;2.20;;
58992;SDS011;44782;0.000;0.000;2024-01-30T11:16:42;2.90;;;2.30;;
58992;SDS011;44782;0.000;0.000;2024-01-30T11:18:59;2.30;;;2.10;;
58992;SDS011;44782;0.000;0.000;2024-01-30T11:21:17;2.73;;;2.40;;
58992;SDS011;44782;0.000;0.000;2024-01-30T11:23:35;2.20;;;2.00;;
58992;SDS011;44782;0.000;0.000;2024-01-30T11:25:52;2.13;;;2.03;;
58992;SDS011;44782;0.000;0.000;2024-01-30T11:28:14;2.30;;;2.10;;
58992;SDS011;44782;0.000;0.000;2024-01-30T11:30:35;2.20;;;2.00;;
58992;SDS011;44782;0.000;0.000;2024-01-30T11:35:19;2.23;;;2.03;;
58992;SDS011;44782;0.000;0.000;2024-01-30T11:37:36;2.80;;;2.03;;
58992;SDS011;44782;0.000;0.000;2024-01-30T11:39:54;2.10;;;1.93;;
58992;SDS011;44782;0.000;0.000;2024-01-30T11:42:11;2.00;;;1.90;;
58992;SDS011;44782;0.000;0.000;2024-01-30T11:44:27;2.03;;;1.90;;
58992;SDS011;44782;0.000;0.000;2024-01-30T11:46:43;2.10;;;2.00;;
58992;SDS011;44782;0.000;0.000;2024-01-30T11:48:59;2.20;;;2.00;;
58992;SDS011;44782;0.000;0.000;2024-01-30T11:51:14;2.00;;;1.80;;
58992;SDS011;44782;0.000;0.000;2024-01-30T11:53:30;2.10;;;1.90;;
58992;SDS011;44782;0.000;0.000;2024-01-30T11:55:50;2.20;;;2.00;;
58992;SDS011;44782;0.000;0.000;2024-01-30T11:58:05;1.73;;;1.63;;
58992;SDS011;44782;0.000;0.000;2024-01-30T12:00:21;2.00;;;1.90;;
58992;SDS011;44782;0.000;0.000;2024-01-30T12:02:37;1.77;;;1.67;;
58992;SDS011;44782;0.000;0.000;2024-01-30T12:04:52;2.20;;;2.00;;
58992;SDS011;44782;0.000;0.000;2024-01-30T12:07:08;1.83;;;1.70;;
58992;SDS011;44782;0.000;0.000;2024-01-30T12:09:24;1.93;;;1.80;;
58992;SDS011;44782;0.000;0.000;2024-01-30T12:11:43;1.70;;;1.60;;
58992;SDS011;44782;0.000;0.000;2024-01-30T12:14:02;1.90;;;1.80;;
58992;SDS011;44782;0.000;0.000;2024-01-30T12:16:18;1.90;;;1.80;;
58992;SDS011;44782;0.000;0.000;2024-01-30T12:18:34;1.90;;;1.80;;
58992;SDS011;44782;0.000;0.000;2024-01-30T12:20:59;1.87;;;1.77;;
58992;SDS011;44782;0.000;0.000;2024-01-30T12:23:15;1.83;;;1.73;;
58992;SDS011;44782;0.000;0.000;2024-01-30T12:25:31;1.83;;;1.73;;
58992;SDS011;44782;0.000;0.000;2024-01-30T12:27:47;1.63;;;1.53;;
58992;SDS011;44782;0.000;0.000;2024-01-30T12:30:10;1.67;;;1.57;;
58992;SDS011;44782;0.000;0.000;2024-01-30T12:32:34;1.70;;;1.60;;
58992;SDS011;44782;0.000;0.000;2024-01-30T12:34:54;1.70;;;1.60;;
58992;SDS011;44782;0.000;0.000;2024-01-30T12:37:10;1.60;;;1.50;;
58992;SDS011;44782;0.000;0.000;2024-01-30T12:39:29;1.50;;;1.40;;
58992;SDS011;44782;0.000;0.000;2024-01-30T12:41:44;1.70;;;1.60;;
58992;SDS011;44782;0.000;0.000;2024-01-30T12:44:00;1.70;;;1.60;;
58992;SDS011;44782;0.000;0.000;2024-01-30T12:46:16;1.70;;;1.60;;
58992;SDS011;44782;0.000;0.000;2024-01-30T12:48:32;1.80;;;1.70;;
58992;SDS011;44782;0.000;0.000;2024-01-30T12:50:48;1.60;;;1.50;;
58992;SDS011;44782;0.000;0.000;2024-01-30T12:53:04;1.70;;;1.60;;
58992;SDS011;44782;0.000;0.000;2024-01-30T12:55:21;1.70;;;1.60;;
58992;SDS011;44782;0.000;0.000;2024-01-30T12:57:36;1.67;;;1.57;;
58992;SDS011;44782;0.000;0.000;2024-01-30T12:59:54;1.57;;;1.47;;
58992;SDS011;44782;0.000;0.000;2024-01-30T13:02:10;1.50;;;1.40;;
58992;SDS011;44782;0.000;0.000;2024-01-30T13:04:27;1.60;;;1.50;;
58992;SDS011;44782;0.000;0.000;2024-01-30T13:06:43;1.60;;;1.50;;
58992;SDS011;44782;0.000;0.000;2024-01-30T13:08:59;1.50;;;1.40;;
58992;SDS011;44782;0.000;0.000;2024-01-30T13:11:14;1.47;;;1.37;;
58992;SDS011;44782;0.000;0.000;2024-01-30T13:13:30;1.63;;;1.53;;
58992;SDS011;44782;0.000;0.000;2024-01-30T13:15:46;1.70;;;1.60;;
58992;SDS011;44782;0.000;0.000;2024-01-30T13:18:02;1.53;;;1.43;;
58992;SDS011;44782;0.000;0.000;2024-01-30T13:20:18;1.50;;;1.40;;
58992;SDS011;44782;0.000;0.000;2024-01-30T13:22:35;1.63;;;1.53;;
58992;SDS011;44782;0.000;0.000;2024-01-30T13:24:53;1.80;;;1.67;;
58992;SDS011;44782;0.000;0.000;2024-01-30T13:27:08;1.60;;;1.50;;
58992;SDS011;44782;0.000;0.000;2024-01-30T13:29:24;1.60;;;1.50;;
58992;SDS011;44782;0.000;0.000;2024-01-30T13:31:40;1.73;;;1.63;;
58992;SDS011;44782;0.000;0.000;2024-01-30T13:33:56;1.50;;;1.40;;
58992;SDS011;44782;0.000;0.000;2024-01-30T13:36:11;1.60;;;1.50;;
58992;SDS011;44782;0.000;0.000;2024-01-30T13:38:27;1.50;;;1.40;;
58992;SDS011;44782;0.000;0.000;2024-01-30T13:40:43;1.90;;;1.80;;
58992;SDS011;44782;0.000;0.000;2024-01-30T13:42:58;2.77;;;2.57;;
58992;SDS011;44782;0.000;0.000;2024-01-30T13:45:14;2.60;;;2.43;;
58992;SDS011;44782;0.000;0.000;2024-01-30T13:47:30;2.70;;;2.50;;
58992;SDS011;44782;0.000;0.000;2024-01-30T13:49:45;2.63;;;2.47;;
58992;SDS011;44782;0.000;0.000;2024-01-30T13:52:01;2.40;;;2.20;;
58992;SDS011;44782;0.000;0.000;2024-01-30T13:54:18;2.43;;;2.23;;
58992;SDS011;44782;0.000;0.000;2024-01-30T13:56:34;2.60;;;2.40;;